Time;durP1;ratioP1;P1;durP2;ratioP2;P2;SDS_P1;SDS_P2;PMS_P1;PMS_P2;Temp;Humidity;BMP_temperature;BMP_pressure;BME280_temperature;BME280_humidity;BME280_pressure;Samples;Min_cycle;Max_cycle;Signal;HPM_P1;HPM_P2
2021/10/11 00:01:10;;;;;;;12.13;3.75;;;;;;;;;;4981276;28;20121;-43
2021/10/11 00:03:35;;;;;;;5.60;3.92;;;;;;;;;;4986466;28;20066;-40
2021/10/11 00:06:00;;;;;;;14.57;2.78;;;;;;;;;;4992307;28;20033;-40
2021/10/11 00:08:26;;;;;;;2.85;2.40;;;;;;;;;;4979641;28;20061;-41
2021/10/11 00:10:54;;;;;;;3.88;3.25;;;;;;;;;;4990513;28;20102;-38
2021/10/11 00:13:20;;;;;;;4.50;3.70;;;;;;;;;;4990417;28;20028;-39
2021/10/11 00:15:45;;;;;;;5.85;3.72;;;;;;;;;;4986410;28;20458;-41
2021/10/11 00:18:10;;;;;;;4.95;4.35;;;;;;;;;;4988104;28;20106;-38
2021/10/11 00:20:36;;;;;;;6.07;4.03;;;;;;;;;;4990695;28;20023;-38
2021/10/11 00:23:01;;;;;;;8.68;3.85;;;;;;;;;;4989969;28;20022;-39
2021/10/11 00:25:27;;;;;;;7.10;3.08;;;;;;;;;;4988446;28;20821;-40
2021/10/11 00:27:52;;;;;;;3.65;3.08;;;;;;;;;;4989610;28;20029;-39
2021/10/11 00:30:18;;;;;;;3.80;3.40;;;;;;;;;;4990107;28;20033;-37
2021/10/11 00:32:46;;;;;;;5.03;4.13;;;;;;;;;;4991612;28;20538;-42
2021/10/11 00:35:12;;;;;;;4.45;3.65;;;;;;;;;;4987541;28;20121;-40
2021/10/11 00:37:37;;;;;;;5.25;4.10;;;;;;;;;;4988126;28;20104;-38
2021/10/11 00:40:03;;;;;;;8.90;4.18;;;;;;;;;;4984949;28;20544;-38
2021/10/11 00:42:29;;;;;;;5.80;3.55;;;;;;;;;;4983781;28;20037;-40
2021/10/11 00:44:54;;;;;;;6.63;3.55;;;;;;;;;;4988200;28;20518;-40
2021/10/11 00:47:20;;;;;;;3.17;2.88;;;;;;;;;;4988477;28;20477;-39
2021/10/11 00:49:45;;;;;;;6.00;4.35;;;;;;;;;;4986071;28;20104;-39
2021/10/11 00:52:10;;;;;;;5.65;4.00;;;;;;;;;;4983416;28;20571;-41
2021/10/11 00:54:36;;;;;;;3.63;2.63;;;;;;;;;;4990114;28;20025;-39
2021/10/11 00:57:01;;;;;;;2.90;2.50;;;;;;;;;;4987106;28;20105;-39
2021/10/11 00:59:26;;;;;;;5.00;3.50;;;;;;;;;;4991166;28;20034;-41
2021/10/11 01:01:51;;;;;;;4.65;3.47;;;;;;;;;;4987182;28;20034;-39
2021/10/11 01:04:17;;;;;;;4.18;3.78;;;;;;;;;;4995794;28;20705;-39
2021/10/11 01:06:43;;;;;;;2.58;2.38;;;;;;;;;;4983133;28;20022;-40
2021/10/11 01:09:09;;;;;;;8.00;3.13;;;;;;;;;;4988384;28;20030;-39
2021/10/11 01:11:35;;;;;;;3.03;2.72;;;;;;;;;;4985708;28;20023;-40
2021/10/11 01:14:01;;;;;;;4.10;3.25;;;;;;;;;;4985733;28;20033;-39
2021/10/11 01:16:27;;;;;;;3.97;2.63;;;;;;;;;;4986753;28;20179;-39
2021/10/11 01:18:52;;;;;;;3.70;2.88;;;;;;;;;;4987115;28;20080;-40
2021/10/11 01:21:17;;;;;;;9.52;2.75;;;;;;;;;;4983427;28;20049;-38
2021/10/11 01:23:43;;;;;;;9.07;4.05;;;;;;;;;;4984272;28;20588;-43
2021/10/11 01:26:08;;;;;;;3.83;3.08;;;;;;;;;;4985483;28;20028;-40
2021/10/11 01:28:33;;;;;;;4.78;2.97;;;;;;;;;;4989214;28;20029;-40
2021/10/11 01:30:59;;;;;;;15.07;5.35;;;;;;;;;;4981590;28;20030;-39
2021/10/11 01:33:24;;;;;;;3.83;2.33;;;;;;;;;;4986486;28;20491;-40
2021/10/11 01:35:49;;;;;;;8.70;2.72;;;;;;;;;;4987128;28;20151;-41
2021/10/11 01:38:15;;;;;;;4.93;3.70;;;;;;;;;;4986884;28;20540;-39
2021/10/11 01:40:40;;;;;;;4.75;3.30;;;;;;;;;;4985738;28;20411;-38
2021/10/11 01:43:06;;;;;;;13.27;4.32;;;;;;;;;;4985476;28;20360;-39
2021/10/11 01:45:32;;;;;;;4.78;3.60;;;;;;;;;;4986739;28;20110;-40
2021/10/11 01:47:58;;;;;;;8.00;2.92;;;;;;;;;;4982223;28;20453;-39
2021/10/11 01:50:23;;;;;;;6.50;4.57;;;;;;;;;;4985852;28;20038;-44
2021/10/11 01:52:48;;;;;;;4.15;3.20;;;;;;;;;;4985020;28;20532;-41
2021/10/11 01:55:13;;;;;;;3.20;2.47;;;;;;;;;;4986759;28;20030;-39
2021/10/11 01:57:39;;;;;;;3.17;2.88;;;;;;;;;;4981870;28;20121;-41
2021/10/11 02:00:06;;;;;;;4.93;3.47;;;;;;;;;;4984434;28;20048;-42
2021/10/11 02:02:36;;;;;;;5.63;3.88;;;;;;;;;;4985674;28;20022;-41
2021/10/11 02:05:02;;;;;;;6.18;3.13;;;;;;;;;;4987403;28;20125;-41
2021/10/11 02:07:27;;;;;;;7.82;4.45;;;;;;;;;;4984175;28;20036;-40
2021/10/11 02:09:53;;;;;;;4.47;3.38;;;;;;;;;;4986710;28;20030;-44
2021/10/11 02:12:18;;;;;;;12.40;4.63;;;;;;;;;;4990409;28;20030;-39
2021/10/11 02:14:43;;;;;;;5.03;3.97;;;;;;;;;;4991743;28;20022;-39
2021/10/11 02:17:09;;;;;;;6.30;3.78;;;;;;;;;;4985125;28;20109;-42
2021/10/11 02:19:34;;;;;;;5.65;5.15;;;;;;;;;;4982517;28;20068;-38
2021/10/11 02:22:02;;;;;;;6.43;3.85;;;;;;;;;;4986642;28;20691;-39
2021/10/11 02:24:27;;;;;;;8.25;3.20;;;;;;;;;;4986915;28;20117;-44
2021/10/11 02:26:55;;;;;;;3.63;2.38;;;;;;;;;;4980947;28;20117;-40
2021/10/11 02:29:20;;;;;;;4.28;2.72;;;;;;;;;;4982882;28;20113;-45
2021/10/11 02:31:46;;;;;;;3.72;2.78;;;;;;;;;;4989699;28;20559;-40
2021/10/11 02:34:11;;;;;;;5.47;4.10;;;;;;;;;;4991664;28;20400;-41
2021/10/11 02:36:39;;;;;;;5.00;3.88;;;;;;;;;;4988322;28;20032;-40
2021/10/11 02:39:07;;;;;;;7.97;6.85;;;;;;;;;;4987073;28;20022;-39
2021/10/11 02:41:40;;;;;;;7.13;4.30;;;;;;;;;;4984822;28;20026;-44
2021/10/11 02:44:08;;;;;;;3.33;3.03;;;;;;;;;;4985693;28;20046;-38
2021/10/11 02:46:39;;;;;;;3.65;3.03;;;;;;;;;;4987121;28;20023;-40
2021/10/11 02:49:13;;;;;;;6.80;4.05;;;;;;;;;;4991633;28;20014;-39
2021/10/11 02:51:38;;;;;;;3.58;2.92;;;;;;;;;;4989873;28;20026;-39
2021/10/11 02:54:04;;;;;;;4.32;2.97;;;;;;;;;;4989726;28;20088;-40
2021/10/11 02:56:29;;;;;;;4.35;3.53;;;;;;;;;;4991946;28;20086;-39
2021/10/11 02:58:54;;;;;;;5.53;3.03;;;;;;;;;;4995669;28;20368;-40
2021/10/11 03:01:20;;;;;;;8.10;3.45;;;;;;;;;;4988836;28;20521;-38
2021/10/11 03:03:45;;;;;;;4.20;2.72;;;;;;;;;;4991578;28;20030;-38
2021/10/11 03:06:10;;;;;;;4.82;4.15;;;;;;;;;;4988646;28;20435;-38
2021/10/11 03:08:36;;;;;;;10.48;4.78;;;;;;;;;;4989684;28;20126;-40
2021/10/11 03:11:02;;;;;;;7.40;5.47;;;;;;;;;;4992983;28;20069;-38
2021/10/11 03:13:28;;;;;;;4.07;3.15;;;;;;;;;;4983916;28;20023;-43
2021/10/11 03:15:53;;;;;;;6.80;4.63;;;;;;;;;;4988133;28;20027;-41
2021/10/11 03:18:19;;;;;;;4.90;3.72;;;;;;;;;;4982499;28;20045;-38
2021/10/11 03:20:45;;;;;;;5.63;4.70;;;;;;;;;;4988390;28;20087;-40
2021/10/11 03:23:10;;;;;;;5.05;4.55;;;;;;;;;;4988841;28;20034;-40
2021/10/11 03:25:35;;;;;;;4.90;4.00;;;;;;;;;;4985468;28;20023;-43
2021/10/11 03:28:01;;;;;;;5.50;4.32;;;;;;;;;;4991967;28;20033;-38
2021/10/11 03:30:26;;;;;;;7.13;4.93;;;;;;;;;;4988112;28;20029;-39
2021/10/11 03:32:51;;;;;;;10.88;8.02;;;;;;;;;;4988550;28;20070;-42
2021/10/11 03:35:16;;;;;;;6.30;4.25;;;;;;;;;;4991811;28;20018;-42
2021/10/11 03:37:42;;;;;;;3.40;3.08;;;;;;;;;;4983404;28;20022;-41
2021/10/11 03:40:08;;;;;;;4.00;3.30;;;;;;;;;;4984746;28;20026;-41
2021/10/11 03:42:33;;;;;;;2.88;2.42;;;;;;;;;;4987572;28;20635;-43
2021/10/11 03:44:58;;;;;;;9.50;3.80;;;;;;;;;;4989325;28;20054;-42
2021/10/11 03:47:23;;;;;;;5.15;3.72;;;;;;;;;;4982847;28;20060;-41
2021/10/11 03:49:49;;;;;;;9.05;3.83;;;;;;;;;;4988101;28;20088;-41
2021/10/11 03:52:14;;;;;;;10.57;3.78;;;;;;;;;;4990697;28;20023;-41
2021/10/11 03:54:39;;;;;;;5.55;4.13;;;;;;;;;;4990649;28;20690;-43
2021/10/11 03:57:04;;;;;;;4.22;3.35;;;;;;;;;;4986371;28;20037;-44
2021/10/11 03:59:30;;;;;;;6.15;2.97;;;;;;;;;;4987424;28;20030;-47
2021/10/11 04:01:55;;;;;;;2.72;2.53;;;;;;;;;;4984131;28;20030;-42
2021/10/11 04:04:22;;;;;;;8.10;3.83;;;;;;;;;;4991778;28;20030;-39
2021/10/11 04:06:47;;;;;;;4.28;3.67;;;;;;;;;;4980134;28;20114;-44
2021/10/11 04:09:13;;;;;;;7.97;2.75;;;;;;;;;;4985700;28;20468;-42
2021/10/11 04:11:38;;;;;;;5.82;2.78;;;;;;;;;;4987631;28;20399;-40
2021/10/11 04:14:04;;;;;;;6.07;3.33;;;;;;;;;;4987171;28;20018;-38
2021/10/11 04:16:30;;;;;;;4.85;3.45;;;;;;;;;;4989519;28;20051;-40
2021/10/11 04:18:55;;;;;;;4.00;3.40;;;;;;;;;;4982891;28;20538;-40
2021/10/11 04:21:20;;;;;;;5.07;3.25;;;;;;;;;;4987210;28;20026;-39
2021/10/11 04:23:46;;;;;;;6.78;2.45;;;;;;;;;;4977364;28;20034;-40
2021/10/11 04:26:11;;;;;;;3.92;2.63;;;;;;;;;;4990255;28;20132;-40
2021/10/11 04:28:37;;;;;;;3.30;2.80;;;;;;;;;;4992885;28;20070;-39
2021/10/11 04:31:02;;;;;;;5.80;2.63;;;;;;;;;;4987816;28;20129;-38
2021/10/11 04:33:27;;;;;;;8.48;2.53;;;;;;;;;;4989520;28;20412;-39
2021/10/11 04:35:53;;;;;;;4.47;2.33;;;;;;;;;;4989082;28;20026;-38
2021/10/11 04:38:18;;;;;;;5.97;4.10;;;;;;;;;;4990674;28;20057;-39
2021/10/11 04:40:43;;;;;;;2.33;1.88;;;;;;;;;;4987458;28;20460;-38
2021/10/11 04:43:09;;;;;;;5.55;2.72;;;;;;;;;;4990314;28;20027;-41
2021/10/11 04:45:34;;;;;;;11.80;3.72;;;;;;;;;;4986512;28;20038;-39
2021/10/11 04:48:07;;;;;;;5.47;2.88;;;;;;;;;;4987902;28;20108;-41
2021/10/11 04:50:33;;;;;;;5.60;3.00;;;;;;;;;;4983176;28;20079;-39
2021/10/11 04:52:59;;;;;;;3.85;2.67;;;;;;;;;;4981726;28;20023;-39
2021/10/11 04:55:24;;;;;;;3.95;2.63;;;;;;;;;;4986789;28;20463;-39
2021/10/11 04:57:50;;;;;;;4.80;3.47;;;;;;;;;;4986585;28;20478;-41
2021/10/11 05:00:15;;;;;;;3.63;3.25;;;;;;;;;;4983948;28;20052;-42
2021/10/11 05:02:40;;;;;;;9.93;3.33;;;;;;;;;;4989958;28;20085;-42
2021/10/11 05:05:06;;;;;;;4.35;3.90;;;;;;;;;;5001961;28;20067;-39
2021/10/11 05:07:31;;;;;;;6.50;3.40;;;;;;;;;;4989878;28;20469;-38
2021/10/11 05:09:57;;;;;;;3.92;3.53;;;;;;;;;;4982355;28;20072;-45
2021/10/11 05:12:22;;;;;;;4.55;3.80;;;;;;;;;;4985997;28;20014;-41
2021/10/11 05:14:47;;;;;;;3.78;3.15;;;;;;;;;;4988688;28;20022;-40
2021/10/11 05:17:12;;;;;;;4.18;3.10;;;;;;;;;;4985844;28;20022;-45
2021/10/11 05:19:38;;;;;;;4.57;3.10;;;;;;;;;;4988545;28;20014;-42
2021/10/11 05:22:03;;;;;;;3.63;3.00;;;;;;;;;;4985427;28;20097;-39
2021/10/11 05:24:30;;;;;;;12.80;11.60;;;;;;;;;;4984641;28;20118;-39
2021/10/11 05:26:55;;;;;;;7.43;3.88;;;;;;;;;;4981710;28;20037;-39
2021/10/11 05:29:21;;;;;;;8.25;7.45;;;;;;;;;;4986846;28;20048;-38
2021/10/11 05:31:46;;;;;;;3.92;3.53;;;;;;;;;;4980779;28;20034;-37
2021/10/11 05:34:12;;;;;;;6.20;4.55;;;;;;;;;;4998672;28;20146;-41
2021/10/11 05:36:37;;;;;;;2.53;2.33;;;;;;;;;;4988334;28;20116;-41
2021/10/11 05:39:03;;;;;;;9.15;5.05;;;;;;;;;;4984893;28;20074;-37
2021/10/11 05:41:28;;;;;;;4.88;3.72;;;;;;;;;;4982542;28;20033;-39
2021/10/11 05:43:53;;;;;;;21.33;4.47;;;;;;;;;;4987865;28;20049;-38
2021/10/11 05:46:19;;;;;;;5.32;3.40;;;;;;;;;;4987135;28;20153;-39
2021/10/11 05:48:44;;;;;;;5.75;3.75;;;;;;;;;;4989556;28;20027;-41
2021/10/11 05:51:09;;;;;;;4.78;3.63;;;;;;;;;;4983896;28;20030;-41
2021/10/11 05:53:35;;;;;;;7.53;4.20;;;;;;;;;;4989704;28;20030;-41
2021/10/11 05:56:00;;;;;;;9.07;4.03;;;;;;;;;;4989083;28;20050;-40
2021/10/11 05:58:25;;;;;;;7.45;4.40;;;;;;;;;;4982946;28;20468;-39
2021/10/11 06:00:51;;;;;;;5.03;3.95;;;;;;;;;;4977011;28;20035;-38
2021/10/11 06:03:16;;;;;;;5.72;4.18;;;;;;;;;;4984902;28;20052;-39
2021/10/11 06:05:41;;;;;;;17.42;5.88;;;;;;;;;;4984311;28;20528;-41
2021/10/11 06:08:06;;;;;;;8.35;4.50;;;;;;;;;;4982525;28;20034;-38
2021/10/11 06:10:32;;;;;;;28.00;4.63;;;;;;;;;;4983785;28;20076;-42
2021/10/11 06:12:57;;;;;;;13.50;4.28;;;;;;;;;;4987872;28;20029;-39
2021/10/11 06:15:22;;;;;;;17.67;9.10;;;;;;;;;;4988656;28;20113;-39
2021/10/11 06:17:48;;;;;;;15.77;14.05;;;;;;;;;;4986928;28;20030;-41
2021/10/11 06:20:13;;;;;;;52.08;43.63;;;;;;;;;;4983139;28;20109;-40
2021/10/11 06:22:39;;;;;;;44.97;40.60;;;;;;;;;;4989661;28;20037;-41
2021/10/11 06:25:05;;;;;;;37.92;33.95;;;;;;;;;;4988357;28;20769;-46
2021/10/11 06:27:31;;;;;;;23.10;20.38;;;;;;;;;;4987204;28;20068;-43
2021/10/11 06:29:56;;;;;;;24.27;17.90;;;;;;;;;;4991101;28;20054;-38
2021/10/11 06:32:22;;;;;;;20.48;15.60;;;;;;;;;;4984447;28;20106;-40
2021/10/11 06:34:48;;;;;;;127.95;35.25;;;;;;;;;;4985207;28;20027;-38
2021/10/11 06:37:13;;;;;;;33.58;21.38;;;;;;;;;;4989290;28;20072;-42
2021/10/11 06:39:38;;;;;;;34.25;18.08;;;;;;;;;;4990246;28;20080;-41
2021/10/11 06:42:04;;;;;;;21.70;17.33;;;;;;;;;;4986273;28;20034;-43
2021/10/11 06:44:30;;;;;;;28.80;17.50;;;;;;;;;;4981278;28;20153;-47
2021/10/11 06:46:55;;;;;;;20.80;18.90;;;;;;;;;;4980652;28;20195;-41
2021/10/11 06:49:23;;;;;;;26.33;18.98;;;;;;;;;;4990579;28;20491;-46
2021/10/11 06:51:48;;;;;;;17.00;15.20;;;;;;;;;;4994718;28;20026;-44
2021/10/11 06:54:14;;;;;;;21.25;17.63;;;;;;;;;;4989313;28;20021;-41
2021/10/11 06:56:39;;;;;;;20.77;16.08;;;;;;;;;;4985594;28;20022;-44
2021/10/11 06:59:04;;;;;;;23.25;18.67;;;;;;;;;;4989926;28;20026;-42
2021/10/11 07:01:30;;;;;;;25.95;17.70;;;;;;;;;;4989134;28;20665;-43
2021/10/11 07:03:55;;;;;;;28.08;20.10;;;;;;;;;;4986150;28;20062;-43
2021/10/11 07:06:21;;;;;;;20.90;18.75;;;;;;;;;;4988726;28;20113;-44
2021/10/11 07:08:47;;;;;;;22.77;18.90;;;;;;;;;;4988532;28;20026;-44
2021/10/11 07:11:12;;;;;;;23.30;16.80;;;;;;;;;;4986220;28;20034;-43
2021/10/11 07:13:38;;;;;;;18.70;12.27;;;;;;;;;;4989645;28;20079;-47
2021/10/11 07:16:03;;;;;;;15.27;13.73;;;;;;;;;;4986232;28;20118;-45
2021/10/11 07:18:29;;;;;;;16.88;13.80;;;;;;;;;;4987858;28;20030;-46
2021/10/11 07:20:54;;;;;;;20.08;13.95;;;;;;;;;;4984786;28;20034;-56
2021/10/11 07:23:20;;;;;;;17.63;12.93;;;;;;;;;;4988752;28;20023;-40
2021/10/11 07:25:45;;;;;;;17.30;14.10;;;;;;;;;;4990012;28;20141;-45
2021/10/11 07:28:10;;;;;;;13.07;11.77;;;;;;;;;;4987474;28;20485;-46
2021/10/11 07:30:35;;;;;;;83.50;64.88;;;;;;;;;;4987640;28;20809;-43
2021/10/11 07:33:03;;;;;;;96.60;72.57;;;;;;;;;;4992210;28;20025;-43
2021/10/11 07:35:28;;;;;;;91.25;81.45;;;;;;;;;;4987465;28;20482;-45
2021/10/11 07:37:53;;;;;;;127.20;95.03;;;;;;;;;;4990174;28;20030;-47
2021/10/11 07:40:20;;;;;;;25.83;21.83;;;;;;;;;;4983070;28;20081;-46
2021/10/11 07:42:46;;;;;;;23.42;20.00;;;;;;;;;;4987951;28;20492;-42
2021/10/11 07:45:11;;;;;;;30.17;24.38;;;;;;;;;;4988902;28;20049;-42
2021/10/11 07:47:36;;;;;;;27.80;19.50;;;;;;;;;;4984119;28;20455;-41
2021/10/11 07:50:02;;;;;;;11.85;10.80;;;;;;;;;;4981637;28;20062;-44
2021/10/11 07:52:27;;;;;;;12.82;11.52;;;;;;;;;;4982413;28;20083;-44
2021/10/11 07:54:53;;;;;;;11.02;9.90;;;;;;;;;;4988817;28;20096;-44
2021/10/11 07:57:18;;;;;;;11.90;10.90;;;;;;;;;;4988711;28;20458;-49
2021/10/11 07:59:43;;;;;;;17.88;13.85;;;;;;;;;;4987323;28;20069;-45
2021/10/11 08:02:09;;;;;;;15.02;13.30;;;;;;;;;;4987222;28;20559;-43
2021/10/11 08:04:34;;;;;;;24.08;13.57;;;;;;;;;;4987825;28;20079;-46
2021/10/11 08:07:00;;;;;;;20.83;12.25;;;;;;;;;;4992665;28;20683;-45
2021/10/11 08:09:25;;;;;;;16.33;9.13;;;;;;;;;;4989118;28;20037;-40
2021/10/11 08:11:50;;;;;;;6.85;6.05;;;;;;;;;;4984621;28;20030;-41
2021/10/11 08:14:16;;;;;;;8.45;5.45;;;;;;;;;;4985945;28;20041;-41
2021/10/11 08:16:41;;;;;;;5.65;4.47;;;;;;;;;;4986157;28;20619;-47
2021/10/11 08:19:07;;;;;;;17.00;6.90;;;;;;;;;;4988674;28;20105;-44
2021/10/11 08:21:32;;;;;;;9.85;6.95;;;;;;;;;;4988112;28;20065;-44
2021/10/11 08:23:59;;;;;;;9.95;7.15;;;;;;;;;;4988234;28;20490;-41
2021/10/11 08:26:25;;;;;;;6.07;3.80;;;;;;;;;;4986672;28;20149;-44
2021/10/11 08:28:51;;;;;;;3.80;3.28;;;;;;;;;;4991014;28;20596;-41
2021/10/11 08:31:16;;;;;;;4.55;3.72;;;;;;;;;;4987640;28;20542;-44
2021/10/11 08:33:41;;;;;;;4.18;3.78;;;;;;;;;;4994231;28;20023;-50
2021/10/11 08:36:07;;;;;;;4.20;2.53;;;;;;;;;;4980366;28;20053;-48
2021/10/11 08:38:32;;;;;;;4.40;3.13;;;;;;;;;;4987777;28;20030;-42
2021/10/11 08:40:58;;;;;;;5.10;3.25;;;;;;;;;;4986258;28;20018;-46
2021/10/11 08:43:23;;;;;;;8.10;6.03;;;;;;;;;;4989235;28;20042;-48
2021/10/11 08:45:50;;;;;;;6.72;5.00;;;;;;;;;;4991942;28;20090;-43
2021/10/11 08:48:16;;;;;;;7.68;5.43;;;;;;;;;;4986191;28;20107;-46
2021/10/11 08:50:41;;;;;;;6.55;3.50;;;;;;;;;;4990532;28;20553;-44
2021/10/11 08:53:08;;;;;;;4.75;3.13;;;;;;;;;;4990114;28;20438;-45
2021/10/11 08:55:33;;;;;;;4.63;3.03;;;;;;;;;;4985811;28;20060;-46
2021/10/11 08:58:00;;;;;;;9.75;2.97;;;;;;;;;;4986599;28;20042;-44
2021/10/11 09:00:25;;;;;;;7.07;4.82;;;;;;;;;;4990630;28;20611;-42
2021/10/11 09:02:51;;;;;;;3.58;3.05;;;;;;;;;;4990617;28;20054;-45
2021/10/11 09:05:20;;;;;;;6.10;5.07;;;;;;;;;;4992396;28;20029;-43
2021/10/11 09:07:46;;;;;;;10.02;7.75;;;;;;;;;;4989406;28;20460;-45
2021/10/11 09:10:11;;;;;;;3.88;2.75;;;;;;;;;;4991263;28;20043;-49
2021/10/11 09:12:37;;;;;;;4.90;3.15;;;;;;;;;;4994902;28;20018;-42
2021/10/11 09:15:13;;;;;;;3.63;2.70;;;;;;;;;;4987589;28;20030;-44
2021/10/11 09:17:44;;;;;;;3.92;2.50;;;;;;;;;;4990917;28;20037;-45
2021/10/11 09:20:09;;;;;;;;;;;;;;;;;;4990312;28;20028;-46
2021/10/11 09:22:35;;;;;;;3.33;2.77;;;;;;;;;;4993574;28;19906;-43
2021/10/11 09:25:00;;;;;;;3.33;2.53;;;;;;;;;;4988397;28;20640;-42
2021/10/11 09:27:25;;;;;;;4.78;2.72;;;;;;;;;;4991678;28;20034;-41
2021/10/11 09:29:51;;;;;;;4.25;2.28;;;;;;;;;;4987618;28;20030;-43
2021/10/11 09:32:16;;;;;;;5.25;3.47;;;;;;;;;;4991848;28;20014;-40
2021/10/11 09:34:42;;;;;;;2.97;2.45;;;;;;;;;;4997671;28;20090;-42
2021/10/11 09:37:13;;;;;;;4.05;3.10;;;;;;;;;;4986907;28;20049;-43
2021/10/11 09:39:38;;;;;;;3.38;2.67;;;;;;;;;;4991916;28;20034;-43
2021/10/11 09:42:05;;;;;;;5.13;3.70;;;;;;;;;;4989903;28;20026;-39
2021/10/11 09:44:30;;;;;;;3.05;2.85;;;;;;;;;;4989131;28;20050;-41
2021/10/11 09:47:11;;;;;;;3.33;2.78;;;;;;;;;;4988062;28;20071;-42
2021/10/11 09:49:39;;;;;;;5.05;2.78;;;;;;;;;;4992447;28;20050;-41
2021/10/11 09:52:05;;;;;;;3.25;2.78;;;;;;;;;;4992405;28;20042;-44
2021/10/11 09:54:30;;;;;;;7.68;2.20;;;;;;;;;;4990174;28;20026;-40
2021/10/11 09:56:57;;;;;;;3.08;2.35;;;;;;;;;;4999733;28;20104;-42
2021/10/11 09:59:22;;;;;;;7.72;2.83;;;;;;;;;;5000252;28;20021;-45
2021/10/11 10:01:48;;;;;;;6.35;4.60;;;;;;;;;;4996244;28;20066;-43
2021/10/11 10:04:36;;;;;;;3.22;2.30;;;;;;;;;;5002852;28;20029;-40
2021/10/11 10:07:04;;;;;;;3.75;2.92;;;;;;;;;;4991015;28;20034;-43
2021/10/11 10:09:30;;;;;;;3.08;2.28;;;;;;;;;;4999037;28;20076;-45
2021/10/11 10:11:56;;;;;;;2.28;2.08;;;;;;;;;;4994800;28;20133;-41
2021/10/11 10:14:22;;;;;;;3.08;1.92;;;;;;;;;;4996753;28;20065;-40
2021/10/11 10:16:49;;;;;;;8.10;3.10;;;;;;;;;;4995634;28;20046;-43
2021/10/11 10:19:14;;;;;;;6.20;2.72;;;;;;;;;;4993048;28;20022;-42
2021/10/11 10:21:40;;;;;;;4.15;3.15;;;;;;;;;;4995124;28;20025;-42
2021/10/11 10:24:07;;;;;;;6.35;4.13;;;;;;;;;;4996101;28;20022;-39
2021/10/11 10:26:36;;;;;;;3.17;2.47;;;;;;;;;;4996691;28;20483;-44
2021/10/11 10:29:19;;;;;;;11.05;2.50;;;;;;;;;;4993133;28;20034;-45
2021/10/11 10:31:45;;;;;;;3.47;2.05;;;;;;;;;;4996479;28;20015;-41
2021/10/11 10:34:17;;;;;;;2.80;2.10;;;;;;;;;;5001184;28;20022;-42
2021/10/11 10:36:44;;;;;;;3.50;2.22;;;;;;;;;;4996973;28;20080;-42
2021/10/11 10:39:11;;;;;;;4.68;2.08;;;;;;;;;;4993855;28;20035;-42
2021/10/11 10:41:37;;;;;;;4.78;2.25;;;;;;;;;;4997823;28;20323;-41
2021/10/11 10:44:15;;;;;;;4.88;2.08;;;;;;;;;;4995779;28;20164;-48
2021/10/11 10:46:49;;;;;;;5.10;4.68;;;;;;;;;;4995415;28;20534;-41
2021/10/11 10:49:24;;;;;;;5.57;2.25;;;;;;;;;;4996758;28;20029;-43
2021/10/11 10:51:50;;;;;;;2.72;2.13;;;;;;;;;;4995137;28;20030;-40
2021/10/11 10:54:15;;;;;;;5.70;2.55;;;;;;;;;;4994393;28;20484;-40
2021/10/11 10:56:40;;;;;;;1.95;1.33;;;;;;;;;;4996861;28;20567;-41
2021/10/11 10:59:10;;;;;;;2.65;1.65;;;;;;;;;;4997311;28;20072;-42
2021/10/11 11:01:36;;;;;;;1.98;1.15;;;;;;;;;;4998251;28;20027;-48
2021/10/11 11:04:10;;;;;;;5.40;2.42;;;;;;;;;;4999632;28;20045;-40
2021/10/11 11:06:35;;;;;;;1.83;1.08;;;;;;;;;;4993798;28;20022;-40
2021/10/11 11:09:01;;;;;;;1.95;1.40;;;;;;;;;;4988202;28;20531;-49
2021/10/11 11:11:27;;;;;;;2.00;1.45;;;;;;;;;;4989090;28;20026;-43
2021/10/11 11:13:53;;;;;;;2.40;1.70;;;;;;;;;;4993364;28;20391;-49
2021/10/11 11:16:23;;;;;;;2.70;2.13;;;;;;;;;;4989891;28;20026;-40
2021/10/11 11:18:48;;;;;;;;;;;;;;;;;;4994481;28;20046;-41
2021/10/11 11:21:14;;;;;;;3.08;2.22;;;;;;;;;;4991093;28;19963;-47
2021/10/11 11:23:43;;;;;;;3.85;2.17;;;;;;;;;;4991737;28;20076;-40
2021/10/11 11:26:10;;;;;;;1.98;1.45;;;;;;;;;;4991690;28;20026;-40
2021/10/11 11:28:36;;;;;;;5.25;2.00;;;;;;;;;;4992007;28;20147;-44
2021/10/11 11:31:05;;;;;;;2.20;1.70;;;;;;;;;;4992954;28;20022;-42
2021/10/11 11:33:32;;;;;;;5.60;2.00;;;;;;;;;;4991013;28;20584;-42
2021/10/11 11:35:58;;;;;;;2.38;1.42;;;;;;;;;;4992223;28;20030;-41
2021/10/11 11:38:25;;;;;;;1.45;1.23;;;;;;;;;;4990466;28;20504;-45
2021/10/11 11:40:52;;;;;;;4.78;1.48;;;;;;;;;;4990953;28;20101;-42
2021/10/11 11:43:18;;;;;;;2.25;1.77;;;;;;;;;;4993077;28;20079;-40
2021/10/11 11:45:46;;;;;;;3.25;1.92;;;;;;;;;;4987733;28;20045;-41
2021/10/11 11:48:13;;;;;;;10.18;2.75;;;;;;;;;;4993651;28;20030;-43
2021/10/11 11:50:39;;;;;;;3.15;2.17;;;;;;;;;;4985787;28;20022;-44
2021/10/11 11:53:06;;;;;;;3.42;1.63;;;;;;;;;;4990933;28;20030;-47
2021/10/11 11:55:31;;;;;;;3.25;1.65;;;;;;;;;;4990150;28;20026;-40
2021/10/11 11:57:57;;;;;;;7.03;1.77;;;;;;;;;;4988420;28;20022;-42
2021/10/11 12:00:23;;;;;;;4.45;1.50;;;;;;;;;;4993114;28;20094;-41
2021/10/11 12:02:49;;;;;;;2.05;1.35;;;;;;;;;;4994537;28;20030;-44
2021/10/11 12:05:16;;;;;;;15.73;3.30;;;;;;;;;;4993411;28;20022;-46
2021/10/11 12:07:41;;;;;;;4.40;2.72;;;;;;;;;;4990249;28;20078;-41
2021/10/11 12:10:07;;;;;;;2.58;2.25;;;;;;;;;;4988245;28;20030;-43
2021/10/11 12:12:33;;;;;;;3.67;1.80;;;;;;;;;;4986395;28;20121;-43
2021/10/11 12:14:59;;;;;;;2.10;1.23;;;;;;;;;;4988197;28;20069;-47
2021/10/11 12:17:34;;;;;;;7.40;2.20;;;;;;;;;;4988578;28;20034;-42
2021/10/11 12:20:00;;;;;;;4.78;0.90;;;;;;;;;;4992182;28;20084;-45
2021/10/11 12:22:31;;;;;;;2.70;1.90;;;;;;;;;;4985354;28;20031;-43
2021/10/11 12:25:01;;;;;;;3.28;1.73;;;;;;;;;;4992609;28;20376;-44
2021/10/11 12:27:26;;;;;;;9.07;1.45;;;;;;;;;;4984407;28;20057;-44
2021/10/11 12:29:51;;;;;;;4.10;2.08;;;;;;;;;;4986801;28;20061;-46
2021/10/11 12:32:17;;;;;;;2.35;1.58;;;;;;;;;;4988037;28;20026;-43
2021/10/11 12:34:45;;;;;;;5.80;3.00;;;;;;;;;;4986789;28;20634;-45
2021/10/11 12:37:12;;;;;;;4.40;1.33;;;;;;;;;;4983964;28;20027;-46
2021/10/11 12:39:39;;;;;;;13.15;7.03;;;;;;;;;;4984335;28;20026;-40
2021/10/11 12:42:08;;;;;;;3.17;2.05;;;;;;;;;;4986135;28;20070;-45
2021/10/11 12:44:34;;;;;;;1.58;0.88;;;;;;;;;;4990431;28;20131;-46
2021/10/11 12:47:00;;;;;;;2.10;1.13;;;;;;;;;;4982680;28;20042;-44
2021/10/11 12:49:30;;;;;;;2.25;1.02;;;;;;;;;;4985601;28;20026;-45
2021/10/11 12:51:55;;;;;;;3.13;2.63;;;;;;;;;;4987449;28;20556;-49
2021/10/11 12:54:27;;;;;;;4.00;2.25;;;;;;;;;;4986386;28;20533;-49
2021/10/11 12:56:52;;;;;;;1.38;0.82;;;;;;;;;;4981844;28;20026;-44
2021/10/11 12:59:18;;;;;;;7.03;1.95;;;;;;;;;;4984577;28;20022;-42
2021/10/11 13:01:44;;;;;;;1.83;1.30;;;;;;;;;;4987302;28;20083;-44
2021/10/11 13:04:09;;;;;;;2.38;1.88;;;;;;;;;;4985749;28;20736;-44
2021/10/11 13:06:35;;;;;;;2.95;1.88;;;;;;;;;;4980733;28;20046;-43
2021/10/11 13:09:01;;;;;;;2.47;1.75;;;;;;;;;;4992180;28;20022;-46
2021/10/11 13:11:26;;;;;;;1.02;0.77;;;;;;;;;;4981810;28;20058;-44
2021/10/11 13:13:52;;;;;;;3.53;2.33;;;;;;;;;;4979172;28;20535;-50
2021/10/11 13:16:17;;;;;;;3.55;1.25;;;;;;;;;;4981923;28;20026;-42
2021/10/11 13:18:43;;;;;;;3.13;2.20;;;;;;;;;;4988131;28;20027;-46
2021/10/11 13:21:08;;;;;;;3.20;1.60;;;;;;;;;;4985862;28;20029;-48
2021/10/11 13:23:34;;;;;;;1.67;1.20;;;;;;;;;;4987802;28;20138;-48
2021/10/11 13:25:59;;;;;;;2.70;1.58;;;;;;;;;;4985617;28;20026;-44
2021/10/11 13:28:25;;;;;;;3.50;1.95;;;;;;;;;;4983123;28;20132;-50
2021/10/11 14:28:00;;;;;;;3.72;2.35;;;;;;;;;;4982714;28;20036;-51
2021/10/11 16:00:03;;;;;;;2.05;1.45;;;;;;;;;;4982686;28;20117;-49
2021/10/11 16:04:53;;;;;;;4.78;3.40;;;;;;;;;;4990215;28;20669;-45
2021/10/11 16:07:19;;;;;;;4.20;2.65;;;;;;;;;;4983931;28;20699;-45
2021/10/11 16:09:44;;;;;;;4.80;2.50;;;;;;;;;;4986005;28;20538;-46
2021/10/11 16:12:09;;;;;;;5.43;2.67;;;;;;;;;;4988983;28;20111;-44
2021/10/11 16:14:34;;;;;;;3.65;2.22;;;;;;;;;;4986110;28;20019;-45
2021/10/11 16:17:01;;;;;;;2.45;1.73;;;;;;;;;;4984579;28;20714;-47
2021/10/11 16:19:26;;;;;;;6.32;2.13;;;;;;;;;;4988822;28;20019;-47
2021/10/11 16:21:53;;;;;;;3.17;1.75;;;;;;;;;;4988242;28;20084;-44
2021/10/11 16:24:19;;;;;;;2.78;1.88;;;;;;;;;;4989276;28;20414;-44
2021/10/11 16:26:47;;;;;;;4.25;1.98;;;;;;;;;;4986793;28;20052;-47
2021/10/11 16:29:12;;;;;;;11.32;2.20;;;;;;;;;;4986934;28;20427;-44
2021/10/11 16:31:38;;;;;;;2.38;1.65;;;;;;;;;;4989312;28;20058;-45
2021/10/11 16:34:03;;;;;;;2.72;1.77;;;;;;;;;;4988212;28;20104;-47
2021/10/11 16:36:29;;;;;;;7.45;2.85;;;;;;;;;;4991103;28;20528;-42
2021/10/11 16:38:54;;;;;;;4.32;2.28;;;;;;;;;;4992487;28;20080;-42
2021/10/11 16:41:19;;;;;;;5.28;2.13;;;;;;;;;;4982023;28;20027;-45
2021/10/11 16:43:45;;;;;;;6.97;2.15;;;;;;;;;;4986177;28;20079;-41
2021/10/11 16:46:11;;;;;;;4.13;2.78;;;;;;;;;;4992172;28;20041;-43
2021/10/11 16:48:36;;;;;;;4.00;2.45;;;;;;;;;;4988002;28;20033;-46
2021/10/11 16:51:03;;;;;;;6.78;1.80;;;;;;;;;;4982838;28;20507;-43
2021/10/11 16:53:34;;;;;;;6.97;1.77;;;;;;;;;;4981045;28;20556;-42
2021/10/11 16:55:59;;;;;;;8.27;2.95;;;;;;;;;;4978481;28;20057;-49
2021/10/11 16:58:24;;;;;;;5.07;2.63;;;;;;;;;;4990584;28;20060;-45
2021/10/11 17:00:50;;;;;;;5.13;2.25;;;;;;;;;;4989111;28;20029;-41